sensor_id;sensor_type;location;lat;lon;timestamp;P1;durP1;ratioP1;P2;durP2;ratioP2
62435;SDS011;48480;50.252;18.848;2023-05-21T00:02:16;14.20;;;11.20;;
62435;SDS011;48480;50.252;18.848;2023-05-21T00:05:01;13.60;;;11.80;;
62435;SDS011;48480;50.252;18.848;2023-05-21T00:07:45;13.40;;;11.50;;
62435;SDS011;48480;50.252;18.848;2023-05-21T00:10:30;12.50;;;11.10;;
62435;SDS011;48480;50.252;18.848;2023-05-21T00:13:14;13.70;;;11.50;;
62435;SDS011;48480;50.252;18.848;2023-05-21T00:15:58;14.30;;;11.30;;
62435;SDS011;48480;50.252;18.848;2023-05-21T00:18:42;13.20;;;11.40;;
62435;SDS011;48480;50.252;18.848;2023-05-21T00:21:27;14.50;;;11.50;;
62435;SDS011;48480;50.252;18.848;2023-05-21T00:24:12;13.20;;;11.80;;
62435;SDS011;48480;50.252;18.848;2023-05-21T00:26:56;13.10;;;11.60;;
62435;SDS011;48480;50.252;18.848;2023-05-21T00:29:40;13.00;;;10.80;;
62435;SDS011;48480;50.252;18.848;2023-05-21T00:32:24;15.80;;;11.50;;
62435;SDS011;48480;50.252;18.848;2023-05-21T00:35:08;12.90;;;10.50;;
62435;SDS011;48480;50.252;18.848;2023-05-21T00:37:52;14.60;;;11.10;;
62435;SDS011;48480;50.252;18.848;2023-05-21T00:40:36;12.40;;;10.90;;
62435;SDS011;48480;50.252;18.848;2023-05-21T00:43:20;14.40;;;10.90;;
62435;SDS011;48480;50.252;18.848;2023-05-21T00:46:11;14.20;;;11.20;;
62435;SDS011;48480;50.252;18.848;2023-05-21T00:49:00;12.50;;;10.40;;
62435;SDS011;48480;50.252;18.848;2023-05-21T00:51:45;14.70;;;11.40;;
62435;SDS011;48480;50.252;18.848;2023-05-21T00:54:31;14.60;;;10.90;;
62435;SDS011;48480;50.252;18.848;2023-05-21T00:57:15;12.50;;;10.90;;
62435;SDS011;48480;50.252;18.848;2023-05-21T01:00:03;12.20;;;10.50;;
62435;SDS011;48480;50.252;18.848;2023-05-21T01:02:51;12.30;;;10.90;;
62435;SDS011;48480;50.252;18.848;2023-05-21T01:05:35;12.30;;;10.80;;
62435;SDS011;48480;50.252;18.848;2023-05-21T01:08:19;14.20;;;10.30;;
62435;SDS011;48480;50.252;18.848;2023-05-21T01:11:04;12.30;;;9.70;;
62435;SDS011;48480;50.252;18.848;2023-05-21T01:13:49;10.90;;;9.00;;
62435;SDS011;48480;50.252;18.848;2023-05-21T01:16:34;13.30;;;9.40;;
62435;SDS011;48480;50.252;18.848;2023-05-21T01:19:21;12.10;;;10.20;;
62435;SDS011;48480;50.252;18.848;2023-05-21T01:22:06;12.50;;;9.40;;
62435;SDS011;48480;50.252;18.848;2023-05-21T01:24:52;16.40;;;10.40;;
62435;SDS011;48480;50.252;18.848;2023-05-21T01:27:38;11.20;;;9.30;;
62435;SDS011;48480;50.252;18.848;2023-05-21T01:30:22;10.30;;;9.20;;
62435;SDS011;48480;50.252;18.848;2023-05-21T01:33:17;11.60;;;10.40;;
62435;SDS011;48480;50.252;18.848;2023-05-21T01:36:11;11.90;;;10.10;;
62435;SDS011;48480;50.252;18.848;2023-05-21T01:38:59;12.00;;;9.70;;
62435;SDS011;48480;50.252;18.848;2023-05-21T01:41:56;12.70;;;9.50;;
62435;SDS011;48480;50.252;18.848;2023-05-21T01:44:41;12.70;;;9.90;;
62435;SDS011;48480;50.252;18.848;2023-05-21T01:47:25;13.40;;;10.00;;
62435;SDS011;48480;50.252;18.848;2023-05-21T01:50:11;13.70;;;9.70;;
62435;SDS011;48480;50.252;18.848;2023-05-21T01:52:56;13.40;;;9.90;;
62435;SDS011;48480;50.252;18.848;2023-05-21T01:55:41;15.00;;;9.70;;
62435;SDS011;48480;50.252;18.848;2023-05-21T01:58:26;13.50;;;9.50;;
62435;SDS011;48480;50.252;18.848;2023-05-21T02:01:10;11.90;;;10.00;;
62435;SDS011;48480;50.252;18.848;2023-05-21T02:03:54;13.10;;;9.50;;
62435;SDS011;48480;50.252;18.848;2023-05-21T02:06:39;13.50;;;10.30;;
62435;SDS011;48480;50.252;18.848;2023-05-21T02:09:24;13.50;;;9.80;;
62435;SDS011;48480;50.252;18.848;2023-05-21T02:12:08;12.40;;;9.50;;
62435;SDS011;48480;50.252;18.848;2023-05-21T02:14:52;14.00;;;10.10;;
62435;SDS011;48480;50.252;18.848;2023-05-21T02:17:36;17.40;;;10.70;;
62435;SDS011;48480;50.252;18.848;2023-05-21T02:20:20;13.40;;;10.10;;
62435;SDS011;48480;50.252;18.848;2023-05-21T02:23:05;11.80;;;9.70;;
62435;SDS011;48480;50.252;18.848;2023-05-21T02:25:49;10.90;;;9.30;;
62435;SDS011;48480;50.252;18.848;2023-05-21T02:28:33;13.50;;;9.70;;
62435;SDS011;48480;50.252;18.848;2023-05-21T02:31:18;12.80;;;9.80;;
62435;SDS011;48480;50.252;18.848;2023-05-21T02:34:02;11.70;;;9.60;;
62435;SDS011;48480;50.252;18.848;2023-05-21T02:36:47;11.30;;;10.00;;
62435;SDS011;48480;50.252;18.848;2023-05-21T02:39:31;11.90;;;9.60;;
62435;SDS011;48480;50.252;18.848;2023-05-21T02:42:15;11.30;;;8.70;;
62435;SDS011;48480;50.252;18.848;2023-05-21T02:44:59;11.50;;;9.50;;
62435;SDS011;48480;50.252;18.848;2023-05-21T02:47:43;13.60;;;10.30;;
62435;SDS011;48480;50.252;18.848;2023-05-21T02:50:27;13.70;;;9.90;;
62435;SDS011;48480;50.252;18.848;2023-05-21T02:53:10;12.70;;;9.60;;
62435;SDS011;48480;50.252;18.848;2023-05-21T02:55:54;12.20;;;9.90;;
62435;SDS011;48480;50.252;18.848;2023-05-21T02:58:39;15.60;;;9.30;;
62435;SDS011;48480;50.252;18.848;2023-05-21T03:01:23;12.60;;;9.40;;
62435;SDS011;48480;50.252;18.848;2023-05-21T03:04:07;12.80;;;10.70;;
62435;SDS011;48480;50.252;18.848;2023-05-21T03:06:50;12.80;;;9.90;;
62435;SDS011;48480;50.252;18.848;2023-05-21T03:09:37;12.40;;;10.00;;
62435;SDS011;48480;50.252;18.848;2023-05-21T03:12:21;11.30;;;9.60;;
62435;SDS011;48480;50.252;18.848;2023-05-21T03:15:05;11.00;;;9.40;;
62435;SDS011;48480;50.252;18.848;2023-05-21T03:17:49;11.00;;;9.30;;
62435;SDS011;48480;50.252;18.848;2023-05-21T03:20:34;10.60;;;9.30;;
62435;SDS011;48480;50.252;18.848;2023-05-21T03:23:17;11.40;;;9.50;;
62435;SDS011;48480;50.252;18.848;2023-05-21T03:26:01;11.90;;;9.80;;
62435;SDS011;48480;50.252;18.848;2023-05-21T03:28:45;11.60;;;9.80;;
62435;SDS011;48480;50.252;18.848;2023-05-21T03:31:29;11.10;;;9.40;;
62435;SDS011;48480;50.252;18.848;2023-05-21T03:34:13;11.70;;;9.90;;
62435;SDS011;48480;50.252;18.848;2023-05-21T03:36:58;10.60;;;8.70;;
62435;SDS011;48480;50.252;18.848;2023-05-21T03:39:43;10.70;;;9.50;;
62435;SDS011;48480;50.252;18.848;2023-05-21T03:42:26;13.10;;;9.20;;
62435;SDS011;48480;50.252;18.848;2023-05-21T03:45:10;13.50;;;9.60;;
62435;SDS011;48480;50.252;18.848;2023-05-21T03:47:54;10.90;;;8.10;;
62435;SDS011;48480;50.252;18.848;2023-05-21T03:50:38;11.10;;;9.30;;
62435;SDS011;48480;50.252;18.848;2023-05-21T03:53:23;10.10;;;8.90;;
62435;SDS011;48480;50.252;18.848;2023-05-21T03:56:07;13.20;;;9.40;;
62435;SDS011;48480;50.252;18.848;2023-05-21T03:58:51;10.60;;;9.10;;
62435;SDS011;48480;50.252;18.848;2023-05-21T04:01:35;10.00;;;8.20;;
62435;SDS011;48480;50.252;18.848;2023-05-21T04:04:19;10.60;;;8.20;;
62435;SDS011;48480;50.252;18.848;2023-05-21T04:07:03;11.80;;;8.70;;
62435;SDS011;48480;50.252;18.848;2023-05-21T04:09:47;11.40;;;8.60;;
62435;SDS011;48480;50.252;18.848;2023-05-21T04:12:31;13.10;;;8.60;;
62435;SDS011;48480;50.252;18.848;2023-05-21T04:15:15;13.10;;;9.20;;
62435;SDS011;48480;50.252;18.848;2023-05-21T04:18:01;11.50;;;8.50;;
62435;SDS011;48480;50.252;18.848;2023-05-21T04:20:45;11.60;;;8.10;;
62435;SDS011;48480;50.252;18.848;2023-05-21T04:23:29;11.60;;;8.10;;
62435;SDS011;48480;50.252;18.848;2023-05-21T04:26:13;14.60;;;8.30;;
62435;SDS011;48480;50.252;18.848;2023-05-21T04:29:00;9.50;;;8.50;;
62435;SDS011;48480;50.252;18.848;2023-05-21T04:31:47;10.80;;;8.50;;
62435;SDS011;48480;50.252;18.848;2023-05-21T04:34:32;9.40;;;7.70;;
62435;SDS011;48480;50.252;18.848;2023-05-21T04:37:16;12.50;;;8.00;;
62435;SDS011;48480;50.252;18.848;2023-05-21T04:40:00;8.80;;;7.70;;
62435;SDS011;48480;50.252;18.848;2023-05-21T04:42:45;14.40;;;8.90;;
62435;SDS011;48480;50.252;18.848;2023-05-21T04:45:31;17.20;;;8.70;;
62435;SDS011;48480;50.252;18.848;2023-05-21T04:48:15;13.60;;;8.90;;
62435;SDS011;48480;50.252;18.848;2023-05-21T04:51:00;13.70;;;8.00;;
62435;SDS011;48480;50.252;18.848;2023-05-21T04:53:47;16.50;;;7.80;;
62435;SDS011;48480;50.252;18.848;2023-05-21T04:56:32;10.90;;;7.30;;
62435;SDS011;48480;50.252;18.848;2023-05-21T04:59:16;10.90;;;7.00;;
62435;SDS011;48480;50.252;18.848;2023-05-21T05:02:01;11.00;;;6.80;;
62435;SDS011;48480;50.252;18.848;2023-05-21T05:04:45;9.30;;;7.00;;
62435;SDS011;48480;50.252;18.848;2023-05-21T05:07:29;8.10;;;6.50;;
62435;SDS011;48480;50.252;18.848;2023-05-21T05:10:13;10.90;;;6.70;;
62435;SDS011;48480;50.252;18.848;2023-05-21T05:12:58;10.50;;;6.80;;
62435;SDS011;48480;50.252;18.848;2023-05-21T05:15:42;8.60;;;6.30;;
62435;SDS011;48480;50.252;18.848;2023-05-21T05:18:26;8.70;;;6.60;;
62435;SDS011;48480;50.252;18.848;2023-05-21T05:21:12;7.10;;;5.60;;
62435;SDS011;48480;50.252;18.848;2023-05-21T05:23:55;8.00;;;6.30;;
62435;SDS011;48480;50.252;18.848;2023-05-21T05:26:40;7.50;;;6.20;;
62435;SDS011;48480;50.252;18.848;2023-05-21T05:29:23;7.70;;;5.00;;
62435;SDS011;48480;50.252;18.848;2023-05-21T05:32:07;7.10;;;5.80;;
62435;SDS011;48480;50.252;18.848;2023-05-21T05:34:51;9.00;;;5.80;;
62435;SDS011;48480;50.252;18.848;2023-05-21T05:37:35;7.10;;;5.90;;
62435;SDS011;48480;50.252;18.848;2023-05-21T05:40:19;7.60;;;5.60;;
62435;SDS011;48480;50.252;18.848;2023-05-21T05:43:03;8.20;;;5.80;;
62435;SDS011;48480;50.252;18.848;2023-05-21T05:45:47;6.50;;;5.10;;
62435;SDS011;48480;50.252;18.848;2023-05-21T05:48:31;7.60;;;5.90;;
62435;SDS011;48480;50.252;18.848;2023-05-21T05:51:15;7.40;;;5.90;;
62435;SDS011;48480;50.252;18.848;2023-05-21T05:53:59;8.80;;;5.50;;
62435;SDS011;48480;50.252;18.848;2023-05-21T05:56:43;10.10;;;5.70;;
62435;SDS011;48480;50.252;18.848;2023-05-21T05:59:27;6.20;;;5.30;;
62435;SDS011;48480;50.252;18.848;2023-05-21T06:02:11;5.70;;;5.10;;
62435;SDS011;48480;50.252;18.848;2023-05-21T06:04:55;7.10;;;5.10;;
62435;SDS011;48480;50.252;18.848;2023-05-21T06:07:40;6.30;;;4.80;;
62435;SDS011;48480;50.252;18.848;2023-05-21T06:10:24;8.60;;;5.00;;
62435;SDS011;48480;50.252;18.848;2023-05-21T06:13:08;4.90;;;4.30;;
62435;SDS011;48480;50.252;18.848;2023-05-21T06:15:53;7.80;;;5.20;;
62435;SDS011;48480;50.252;18.848;2023-05-21T06:18:37;7.10;;;5.20;;
62435;SDS011;48480;50.252;18.848;2023-05-21T06:21:21;6.20;;;4.70;;
62435;SDS011;48480;50.252;18.848;2023-05-21T06:24:05;7.90;;;4.60;;
62435;SDS011;48480;50.252;18.848;2023-05-21T06:26:49;8.90;;;5.60;;
62435;SDS011;48480;50.252;18.848;2023-05-21T06:29:34;5.60;;;4.80;;
62435;SDS011;48480;50.252;18.848;2023-05-21T06:32:18;9.40;;;5.40;;
62435;SDS011;48480;50.252;18.848;2023-05-21T06:35:03;6.20;;;5.00;;
62435;SDS011;48480;50.252;18.848;2023-05-21T06:37:48;5.60;;;4.90;;
62435;SDS011;48480;50.252;18.848;2023-05-21T06:40:32;8.10;;;4.70;;
62435;SDS011;48480;50.252;18.848;2023-05-21T06:43:16;6.00;;;4.80;;
62435;SDS011;48480;50.252;18.848;2023-05-21T06:46:00;5.20;;;4.70;;
62435;SDS011;48480;50.252;18.848;2023-05-21T06:48:44;6.30;;;4.30;;
62435;SDS011;48480;50.252;18.848;2023-05-21T06:51:31;6.10;;;4.90;;
62435;SDS011;48480;50.252;18.848;2023-05-21T06:54:15;7.90;;;5.10;;
62435;SDS011;48480;50.252;18.848;2023-05-21T06:56:59;6.30;;;4.80;;
62435;SDS011;48480;50.252;18.848;2023-05-21T06:59:44;6.30;;;4.90;;
62435;SDS011;48480;50.252;18.848;2023-05-21T07:02:28;5.90;;;4.70;;
62435;SDS011;48480;50.252;18.848;2023-05-21T07:05:12;7.10;;;4.80;;
62435;SDS011;48480;50.252;18.848;2023-05-21T07:07:56;8.30;;;4.80;;
62435;SDS011;48480;50.252;18.848;2023-05-21T07:10:40;7.30;;;4.60;;
62435;SDS011;48480;50.252;18.848;2023-05-21T07:13:25;6.90;;;4.80;;
62435;SDS011;48480;50.252;18.848;2023-05-21T07:16:09;8.10;;;4.50;;
62435;SDS011;48480;50.252;18.848;2023-05-21T07:18:53;6.80;;;4.20;;
62435;SDS011;48480;50.252;18.848;2023-05-21T07:21:37;4.70;;;3.70;;
62435;SDS011;48480;50.252;18.848;2023-05-21T07:24:20;10.20;;;4.60;;
62435;SDS011;48480;50.252;18.848;2023-05-21T07:27:04;7.20;;;4.30;;
62435;SDS011;48480;50.252;18.848;2023-05-21T07:29:49;5.10;;;4.00;;
62435;SDS011;48480;50.252;18.848;2023-05-21T07:32:33;6.10;;;4.20;;
62435;SDS011;48480;50.252;18.848;2023-05-21T07:35:17;6.40;;;3.80;;
62435;SDS011;48480;50.252;18.848;2023-05-21T07:38:01;4.30;;;3.60;;
62435;SDS011;48480;50.252;18.848;2023-05-21T07:40:46;4.60;;;3.80;;
62435;SDS011;48480;50.252;18.848;2023-05-21T07:43:30;4.80;;;3.50;;
62435;SDS011;48480;50.252;18.848;2023-05-21T07:46:14;7.40;;;3.70;;
62435;SDS011;48480;50.252;18.848;2023-05-21T07:48:58;6.70;;;4.00;;
62435;SDS011;48480;50.252;18.848;2023-05-21T07:51:42;5.40;;;3.60;;
62435;SDS011;48480;50.252;18.848;2023-05-21T07:54:27;8.20;;;3.80;;
62435;SDS011;48480;50.252;18.848;2023-05-21T07:57:11;6.40;;;3.70;;
62435;SDS011;48480;50.252;18.848;2023-05-21T07:59:56;8.90;;;3.30;;
62435;SDS011;48480;50.252;18.848;2023-05-21T08:02:41;5.80;;;3.30;;
62435;SDS011;48480;50.252;18.848;2023-05-21T08:05:26;4.60;;;3.60;;
62435;SDS011;48480;50.252;18.848;2023-05-21T08:08:10;5.30;;;3.70;;
62435;SDS011;48480;50.252;18.848;2023-05-21T08:10:55;5.10;;;3.40;;
62435;SDS011;48480;50.252;18.848;2023-05-21T08:13:39;6.00;;;3.50;;
62435;SDS011;48480;50.252;18.848;2023-05-21T08:16:23;5.50;;;3.70;;
62435;SDS011;48480;50.252;18.848;2023-05-21T08:19:07;5.60;;;3.30;;
62435;SDS011;48480;50.252;18.848;2023-05-21T08:21:51;6.20;;;3.30;;
62435;SDS011;48480;50.252;18.848;2023-05-21T08:24:35;6.50;;;3.40;;
62435;SDS011;48480;50.252;18.848;2023-05-21T08:27:19;7.70;;;4.00;;
62435;SDS011;48480;50.252;18.848;2023-05-21T08:30:04;6.40;;;3.00;;
62435;SDS011;48480;50.252;18.848;2023-05-21T08:32:48;5.20;;;3.40;;
62435;SDS011;48480;50.252;18.848;2023-05-21T08:35:33;7.80;;;3.30;;
62435;SDS011;48480;50.252;18.848;2023-05-21T08:44:50;9.50;;;3.70;;
62435;SDS011;48480;50.252;18.848;2023-05-21T08:47:36;6.40;;;3.60;;
62435;SDS011;48480;50.252;18.848;2023-05-21T08:50:20;6.80;;;3.20;;
62435;SDS011;48480;50.252;18.848;2023-05-21T08:53:04;7.40;;;3.30;;
62435;SDS011;48480;50.252;18.848;2023-05-21T08:55:49;7.60;;;3.60;;
62435;SDS011;48480;50.252;18.848;2023-05-21T08:58:35;5.50;;;2.90;;
62435;SDS011;48480;50.252;18.848;2023-05-21T09:01:20;6.20;;;2.90;;
62435;SDS011;48480;50.252;18.848;2023-05-21T09:04:05;4.40;;;2.70;;
62435;SDS011;48480;50.252;18.848;2023-05-21T09:06:49;6.70;;;2.90;;
62435;SDS011;48480;50.252;18.848;2023-05-21T09:09:38;6.30;;;3.00;;
62435;SDS011;48480;50.252;18.848;2023-05-21T09:12:29;4.80;;;3.10;;
62435;SDS011;48480;50.252;18.848;2023-05-21T09:15:15;5.30;;;3.00;;
62435;SDS011;48480;50.252;18.848;2023-05-21T09:17:59;5.50;;;2.90;;
62435;SDS011;48480;50.252;18.848;2023-05-21T09:20:45;6.50;;;2.80;;
62435;SDS011;48480;50.252;18.848;2023-05-21T09:23:29;9.70;;;3.00;;
62435;SDS011;48480;50.252;18.848;2023-05-21T09:26:13;8.30;;;2.90;;
62435;SDS011;48480;50.252;18.848;2023-05-21T09:28:58;6.70;;;2.80;;
62435;SDS011;48480;50.252;18.848;2023-05-21T09:31:43;4.40;;;2.90;;
62435;SDS011;48480;50.252;18.848;2023-05-21T09:34:27;9.80;;;3.30;;
62435;SDS011;48480;50.252;18.848;2023-05-21T09:37:11;7.10;;;2.90;;
62435;SDS011;48480;50.252;18.848;2023-05-21T09:39:56;9.60;;;2.90;;
62435;SDS011;48480;50.252;18.848;2023-05-21T09:42:50;5.70;;;2.50;;
62435;SDS011;48480;50.252;18.848;2023-05-21T09:45:35;6.40;;;2.50;;
62435;SDS011;48480;50.252;18.848;2023-05-21T09:49:02;6.80;;;2.40;;
62435;SDS011;48480;50.252;18.848;2023-05-21T09:51:27;5.60;;;2.60;;
62435;SDS011;48480;50.252;18.848;2023-05-21T09:54:12;5.90;;;2.40;;
62435;SDS011;48480;50.252;18.848;2023-05-21T09:56:56;4.90;;;2.50;;
62435;SDS011;48480;50.252;18.848;2023-05-21T09:59:40;3.80;;;2.30;;
62435;SDS011;48480;50.252;18.848;2023-05-21T10:02:25;6.40;;;2.30;;
62435;SDS011;48480;50.252;18.848;2023-05-21T10:05:13;6.00;;;2.50;;
62435;SDS011;48480;50.252;18.848;2023-05-21T10:08:00;5.00;;;2.50;;
62435;SDS011;48480;50.252;18.848;2023-05-21T10:10:45;3.80;;;2.40;;
62435;SDS011;48480;50.252;18.848;2023-05-21T10:13:33;5.10;;;2.50;;
62435;SDS011;48480;50.252;18.848;2023-05-21T10:16:22;3.60;;;2.40;;
62435;SDS011;48480;50.252;18.848;2023-05-21T10:19:07;10.10;;;2.70;;
62435;SDS011;48480;50.252;18.848;2023-05-21T10:21:53;5.60;;;2.40;;
62435;SDS011;48480;50.252;18.848;2023-05-21T10:24:39;3.80;;;2.20;;
62435;SDS011;48480;50.252;18.848;2023-05-21T10:27:26;4.40;;;2.50;;
62435;SDS011;48480;50.252;18.848;2023-05-21T10:30:11;6.10;;;2.30;;
62435;SDS011;48480;50.252;18.848;2023-05-21T10:32:55;5.40;;;2.30;;
62435;SDS011;48480;50.252;18.848;2023-05-21T10:35:39;2.70;;;2.00;;
62435;SDS011;48480;50.252;18.848;2023-05-21T10:38:24;4.20;;;2.20;;
62435;SDS011;48480;50.252;18.848;2023-05-21T10:41:10;4.70;;;2.10;;
62435;SDS011;48480;50.252;18.848;2023-05-21T10:44:06;3.90;;;2.20;;
62435;SDS011;48480;50.252;18.848;2023-05-21T10:58:54;3.30;;;2.20;;
62435;SDS011;48480;50.252;18.848;2023-05-21T11:04:46;4.50;;;1.90;;
62435;SDS011;48480;50.252;18.848;2023-05-21T11:07:50;4.00;;;2.10;;
62435;SDS011;48480;50.252;18.848;2023-05-21T11:10:43;5.90;;;1.90;;
62435;SDS011;48480;50.252;18.848;2023-05-21T11:13:43;4.20;;;2.20;;
62435;SDS011;48480;50.252;18.848;2023-05-21T11:16:32;5.00;;;2.10;;
62435;SDS011;48480;50.252;18.848;2023-05-21T11:19:19;7.10;;;2.40;;
62435;SDS011;48480;50.252;18.848;2023-05-21T11:22:19;2.90;;;2.20;;
62435;SDS011;48480;50.252;18.848;2023-05-21T11:25:05;6.60;;;2.20;;
62435;SDS011;48480;50.252;18.848;2023-05-21T11:27:49;5.80;;;2.30;;
62435;SDS011;48480;50.252;18.848;2023-05-21T11:30:33;3.70;;;2.40;;
62435;SDS011;48480;50.252;18.848;2023-05-21T11:33:18;2.70;;;2.20;;
62435;SDS011;48480;50.252;18.848;2023-05-21T11:36:02;4.90;;;2.10;;
62435;SDS011;48480;50.252;18.848;2023-05-21T11:39:14;4.80;;;2.30;;
62435;SDS011;48480;50.252;18.848;2023-05-21T11:42:04;3.20;;;2.20;;
62435;SDS011;48480;50.252;18.848;2023-05-21T11:44:49;5.90;;;2.40;;
62435;SDS011;48480;50.252;18.848;2023-05-21T11:47:33;4.80;;;2.50;;
62435;SDS011;48480;50.252;18.848;2023-05-21T11:50:17;4.50;;;2.20;;
62435;SDS011;48480;50.252;18.848;2023-05-21T11:53:01;5.00;;;2.30;;
62435;SDS011;48480;50.252;18.848;2023-05-21T11:55:45;5.70;;;2.30;;
62435;SDS011;48480;50.252;18.848;2023-05-21T11:58:30;4.60;;;2.40;;
62435;SDS011;48480;50.252;18.848;2023-05-21T12:01:21;7.30;;;2.80;;
62435;SDS011;48480;50.252;18.848;2023-05-21T12:04:06;5.30;;;2.70;;
62435;SDS011;48480;50.252;18.848;2023-05-21T12:06:50;4.00;;;2.30;;
62435;SDS011;48480;50.252;18.848;2023-05-21T12:09:40;2.90;;;2.20;;
62435;SDS011;48480;50.252;18.848;2023-05-21T12:12:26;3.20;;;2.40;;
62435;SDS011;48480;50.252;18.848;2023-05-21T12:15:11;4.30;;;2.20;;
62435;SDS011;48480;50.252;18.848;2023-05-21T12:17:56;4.60;;;2.50;;
62435;SDS011;48480;50.252;18.848;2023-05-21T12:20:42;8.10;;;3.10;;
62435;SDS011;48480;50.252;18.848;2023-05-21T12:23:27;4.50;;;2.40;;
62435;SDS011;48480;50.252;18.848;2023-05-21T12:26:13;5.90;;;2.50;;
62435;SDS011;48480;50.252;18.848;2023-05-21T12:28:58;4.20;;;2.30;;
62435;SDS011;48480;50.252;18.848;2023-05-21T12:31:48;7.30;;;2.30;;
62435;SDS011;48480;50.252;18.848;2023-05-21T12:34:43;3.50;;;2.30;;
62435;SDS011;48480;50.252;18.848;2023-05-21T12:37:33;3.60;;;2.40;;
62435;SDS011;48480;50.252;18.848;2023-05-21T12:40:18;9.30;;;3.50;;
62435;SDS011;48480;50.252;18.848;2023-05-21T12:43:03;6.60;;;2.40;;
62435;SDS011;48480;50.252;18.848;2023-05-21T12:45:48;4.00;;;2.50;;
62435;SDS011;48480;50.252;18.848;2023-05-21T12:48:32;3.20;;;2.20;;
62435;SDS011;48480;50.252;18.848;2023-05-21T12:51:16;5.60;;;2.20;;
62435;SDS011;48480;50.252;18.848;2023-05-21T12:54:00;3.80;;;2.30;;
62435;SDS011;48480;50.252;18.848;2023-05-21T12:56:45;3.00;;;2.30;;
62435;SDS011;48480;50.252;18.848;2023-05-21T12:59:37;3.60;;;2.30;;
62435;SDS011;48480;50.252;18.848;2023-05-21T13:02:27;5.70;;;2.50;;
62435;SDS011;48480;50.252;18.848;2023-05-21T13:05:15;5.60;;;2.50;;
62435;SDS011;48480;50.252;18.848;2023-05-21T13:08:02;3.90;;;2.30;;
62435;SDS011;48480;50.252;18.848;2023-05-21T13:10:46;5.60;;;2.40;;
62435;SDS011;48480;50.252;18.848;2023-05-21T13:13:31;3.90;;;2.50;;
62435;SDS011;48480;50.252;18.848;2023-05-21T13:16:15;3.60;;;2.80;;
62435;SDS011;48480;50.252;18.848;2023-05-21T13:18:59;3.30;;;2.40;;
62435;SDS011;48480;50.252;18.848;2023-05-21T13:21:43;4.40;;;2.40;;
62435;SDS011;48480;50.252;18.848;2023-05-21T13:24:27;3.80;;;2.30;;
62435;SDS011;48480;50.252;18.848;2023-05-21T13:27:11;3.90;;;2.20;;
62435;SDS011;48480;50.252;18.848;2023-05-21T13:29:56;5.70;;;2.40;;
62435;SDS011;48480;50.252;18.848;2023-05-21T13:32:41;3.90;;;2.60;;
62435;SDS011;48480;50.252;18.848;2023-05-21T13:35:26;4.70;;;2.60;;
62435;SDS011;48480;50.252;18.848;2023-05-21T13:38:10;5.40;;;2.40;;
62435;SDS011;48480;50.252;18.848;2023-05-21T13:40:54;3.40;;;2.30;;
62435;SDS011;48480;50.252;18.848;2023-05-21T13:43:42;4.40;;;2.60;;
62435;SDS011;48480;50.252;18.848;2023-05-21T13:46:27;7.80;;;2.70;;
62435;SDS011;48480;50.252;18.848;2023-05-21T13:49:11;5.00;;;2.70;;
62435;SDS011;48480;50.252;18.848;2023-05-21T13:51:55;5.00;;;2.40;;
62435;SDS011;48480;50.252;18.848;2023-05-21T13:54:41;4.10;;;2.40;;
62435;SDS011;48480;50.252;18.848;2023-05-21T13:57:34;5.80;;;2.50;;
62435;SDS011;48480;50.252;18.848;2023-05-21T14:00:19;6.30;;;2.50;;
62435;SDS011;48480;50.252;18.848;2023-05-21T14:03:03;3.60;;;2.70;;
62435;SDS011;48480;50.252;18.848;2023-05-21T14:05:49;3.70;;;2.20;;
62435;SDS011;48480;50.252;18.848;2023-05-21T14:08:36;3.90;;;2.30;;
62435;SDS011;48480;50.252;18.848;2023-05-21T14:11:20;5.00;;;2.40;;
62435;SDS011;48480;50.252;18.848;2023-05-21T14:14:05;4.30;;;2.50;;
62435;SDS011;48480;50.252;18.848;2023-05-21T14:16:50;4.00;;;2.20;;
62435;SDS011;48480;50.252;18.848;2023-05-21T14:19:34;4.90;;;2.60;;
62435;SDS011;48480;50.252;18.848;2023-05-21T14:22:18;4.20;;;2.40;;
62435;SDS011;48480;50.252;18.848;2023-05-21T14:25:03;4.60;;;2.50;;
62435;SDS011;48480;50.252;18.848;2023-05-21T14:27:47;3.80;;;2.80;;
62435;SDS011;48480;50.252;18.848;2023-05-21T14:30:31;3.60;;;2.50;;
62435;SDS011;48480;50.252;18.848;2023-05-21T14:33:16;3.50;;;2.50;;
62435;SDS011;48480;50.252;18.848;2023-05-21T14:36:00;4.30;;;2.50;;
62435;SDS011;48480;50.252;18.848;2023-05-21T14:38:45;3.60;;;2.50;;
62435;SDS011;48480;50.252;18.848;2023-05-21T14:41:30;3.70;;;2.80;;
62435;SDS011;48480;50.252;18.848;2023-05-21T14:44:17;3.90;;;2.70;;
62435;SDS011;48480;50.252;18.848;2023-05-21T14:47:07;4.20;;;2.50;;
62435;SDS011;48480;50.252;18.848;2023-05-21T14:49:55;3.50;;;2.60;;
62435;SDS011;48480;50.252;18.848;2023-05-21T14:52:39;5.20;;;2.90;;
62435;SDS011;48480;50.252;18.848;2023-05-21T14:55:25;4.20;;;2.80;;
62435;SDS011;48480;50.252;18.848;2023-05-21T14:58:09;5.00;;;2.80;;
62435;SDS011;48480;50.252;18.848;2023-05-21T15:00:54;5.20;;;3.00;;
62435;SDS011;48480;50.252;18.848;2023-05-21T15:03:39;4.30;;;2.90;;
62435;SDS011;48480;50.252;18.848;2023-05-21T15:06:23;3.90;;;2.90;;
62435;SDS011;48480;50.252;18.848;2023-05-21T15:09:07;3.60;;;2.80;;
62435;SDS011;48480;50.252;18.848;2023-05-21T15:11:51;6.60;;;2.60;;
62435;SDS011;48480;50.252;18.848;2023-05-21T15:14:36;5.00;;;2.80;;
62435;SDS011;48480;50.252;18.848;2023-05-21T15:17:21;5.40;;;2.80;;
62435;SDS011;48480;50.252;18.848;2023-05-21T15:20:05;5.80;;;2.50;;
62435;SDS011;48480;50.252;18.848;2023-05-21T15:22:50;5.50;;;2.60;;
62435;SDS011;48480;50.252;18.848;2023-05-21T15:25:36;5.30;;;3.00;;
62435;SDS011;48480;50.252;18.848;2023-05-21T15:28:20;5.40;;;3.40;;
62435;SDS011;48480;50.252;18.848;2023-05-21T15:31:05;4.00;;;2.90;;
62435;SDS011;48480;50.252;18.848;2023-05-21T15:33:49;4.70;;;3.20;;
62435;SDS011;48480;50.252;18.848;2023-05-21T15:36:33;6.70;;;2.90;;
62435;SDS011;48480;50.252;18.848;2023-05-21T15:39:17;6.80;;;3.10;;
62435;SDS011;48480;50.252;18.848;2023-05-21T15:42:01;3.00;;;2.70;;
62435;SDS011;48480;50.252;18.848;2023-05-21T15:44:46;4.20;;;3.00;;
62435;SDS011;48480;50.252;18.848;2023-05-21T15:47:30;4.10;;;2.80;;
62435;SDS011;48480;50.252;18.848;2023-05-21T15:50:14;5.40;;;3.00;;
62435;SDS011;48480;50.252;18.848;2023-05-21T15:52:59;3.80;;;3.00;;
62435;SDS011;48480;50.252;18.848;2023-05-21T15:55:42;4.50;;;2.90;;
62435;SDS011;48480;50.252;18.848;2023-05-21T15:58:27;5.80;;;3.10;;
62435;SDS011;48480;50.252;18.848;2023-05-21T16:01:11;4.30;;;3.10;;
62435;SDS011;48480;50.252;18.848;2023-05-21T16:03:55;2.90;;;2.60;;
62435;SDS011;48480;50.252;18.848;2023-05-21T16:06:40;4.30;;;2.70;;
62435;SDS011;48480;50.252;18.848;2023-05-21T16:09:24;4.10;;;2.70;;
62435;SDS011;48480;50.252;18.848;2023-05-21T16:12:08;7.40;;;2.70;;
62435;SDS011;48480;50.252;18.848;2023-05-21T16:14:52;4.10;;;2.80;;
62435;SDS011;48480;50.252;18.848;2023-05-21T16:17:36;5.60;;;3.00;;
62435;SDS011;48480;50.252;18.848;2023-05-21T16:20:21;5.50;;;2.70;;
62435;SDS011;48480;50.252;18.848;2023-05-21T16:23:05;5.20;;;3.00;;
62435;SDS011;48480;50.252;18.848;2023-05-21T16:25:49;4.40;;;2.90;;
62435;SDS011;48480;50.252;18.848;2023-05-21T16:28:34;5.00;;;2.80;;
62435;SDS011;48480;50.252;18.848;2023-05-21T16:31:18;4.50;;;2.80;;
62435;SDS011;48480;50.252;18.848;2023-05-21T16:34:02;5.40;;;3.10;;
62435;SDS011;48480;50.252;18.848;2023-05-21T16:36:46;5.80;;;3.10;;